sensor_id;sensor_type;location;lat;lon;timestamp;P1;durP1;ratioP1;P2;durP2;ratioP2
735;SDS011;352;48.626;9.238;2023-05-01T00:01:31;8.40;;;7.70;;
735;SDS011;352;48.626;9.238;2023-05-01T00:03:58;11.07;;;7.93;;
735;SDS011;352;48.626;9.238;2023-05-01T00:06:24;10.53;;;8.80;;
735;SDS011;352;48.626;9.238;2023-05-01T00:08:52;10.10;;;9.00;;
735;SDS011;352;48.626;9.238;2023-05-01T00:11:20;12.70;;;9.90;;
735;SDS011;352;48.626;9.238;2023-05-01T00:13:46;12.10;;;10.90;;
735;SDS011;352;48.626;9.238;2023-05-01T00:16:13;16.20;;;12.40;;
735;SDS011;352;48.626;9.238;2023-05-01T00:18:40;14.50;;;12.23;;
735;SDS011;352;48.626;9.238;2023-05-01T00:21:07;13.77;;;11.60;;
735;SDS011;352;48.626;9.238;2023-05-01T00:23:34;17.57;;;11.90;;
735;SDS011;352;48.626;9.238;2023-05-01T00:26:01;13.90;;;10.77;;
735;SDS011;352;48.626;9.238;2023-05-01T00:28:29;11.03;;;9.70;;
735;SDS011;352;48.626;9.238;2023-05-01T00:30:56;11.17;;;10.10;;
735;SDS011;352;48.626;9.238;2023-05-01T00:33:23;12.40;;;10.40;;
735;SDS011;352;48.626;9.238;2023-05-01T00:35:50;11.23;;;9.60;;
735;SDS011;352;48.626;9.238;2023-05-01T00:38:16;12.90;;;11.00;;
735;SDS011;352;48.626;9.238;2023-05-01T00:40:43;9.93;;;9.00;;
735;SDS011;352;48.626;9.238;2023-05-01T00:43:11;13.30;;;10.03;;
735;SDS011;352;48.626;9.238;2023-05-01T00:45:41;11.53;;;8.50;;
735;SDS011;352;48.626;9.238;2023-05-01T00:48:09;10.07;;;8.97;;
735;SDS011;352;48.626;9.238;2023-05-01T00:50:36;10.30;;;8.23;;
735;SDS011;352;48.626;9.238;2023-05-01T00:53:03;9.77;;;8.87;;
735;SDS011;352;48.626;9.238;2023-05-01T00:55:30;9.43;;;8.23;;
735;SDS011;352;48.626;9.238;2023-05-01T00:57:58;13.33;;;9.77;;
735;SDS011;352;48.626;9.238;2023-05-01T01:00:26;9.60;;;8.70;;
735;SDS011;352;48.626;9.238;2023-05-01T01:02:54;9.63;;;8.70;;
735;SDS011;352;48.626;9.238;2023-05-01T01:05:22;9.43;;;8.53;;
735;SDS011;352;48.626;9.238;2023-05-01T01:07:52;7.87;;;7.07;;
735;SDS011;352;48.626;9.238;2023-05-01T01:10:29;8.37;;;7.67;;
735;SDS011;352;48.626;9.238;2023-05-01T01:13:03;7.00;;;6.40;;
735;SDS011;352;48.626;9.238;2023-05-01T01:15:38;7.63;;;7.00;;
735;SDS011;352;48.626;9.238;2023-05-01T01:18:13;8.30;;;7.50;;
735;SDS011;352;48.626;9.238;2023-05-01T01:20:45;7.97;;;7.27;;
735;SDS011;352;48.626;9.238;2023-05-01T01:23:23;8.00;;;7.20;;
735;SDS011;352;48.626;9.238;2023-05-01T01:26:21;7.93;;;6.80;;
735;SDS011;352;48.626;9.238;2023-05-01T01:32:23;9.07;;;8.17;;
735;SDS011;352;48.626;9.238;2023-05-01T01:35:09;8.10;;;7.07;;
735;SDS011;352;48.626;9.238;2023-05-01T01:37:42;7.77;;;7.00;;
735;SDS011;352;48.626;9.238;2023-05-01T01:40:16;8.32;;;7.63;;
735;SDS011;352;48.626;9.238;2023-05-01T01:42:47;7.43;;;6.83;;
735;SDS011;352;48.626;9.238;2023-05-01T01:45:20;7.83;;;7.13;;
735;SDS011;352;48.626;9.238;2023-05-01T01:47:48;8.00;;;7.30;;
735;SDS011;352;48.626;9.238;2023-05-01T01:50:19;7.70;;;7.00;;
735;SDS011;352;48.626;9.238;2023-05-01T01:52:50;6.70;;;6.20;;
735;SDS011;352;48.626;9.238;2023-05-01T01:55:19;7.33;;;6.63;;
735;SDS011;352;48.626;9.238;2023-05-01T01:57:48;8.33;;;7.53;;
735;SDS011;352;48.626;9.238;2023-05-01T02:00:15;8.20;;;7.50;;
735;SDS011;352;48.626;9.238;2023-05-01T02:02:43;7.23;;;6.60;;
735;SDS011;352;48.626;9.238;2023-05-01T02:05:12;7.50;;;6.83;;
735;SDS011;352;48.626;9.238;2023-05-01T02:07:43;7.17;;;6.53;;
735;SDS011;352;48.626;9.238;2023-05-01T02:10:12;6.90;;;6.30;;
735;SDS011;352;48.626;9.238;2023-05-01T02:12:40;7.63;;;6.80;;
735;SDS011;352;48.626;9.238;2023-05-01T02:15:09;8.17;;;7.47;;
735;SDS011;352;48.626;9.238;2023-05-01T02:17:36;7.20;;;6.50;;
735;SDS011;352;48.626;9.238;2023-05-01T02:20:06;7.67;;;7.07;;
735;SDS011;352;48.626;9.238;2023-05-01T02:22:36;7.20;;;6.50;;
735;SDS011;352;48.626;9.238;2023-05-01T02:25:06;7.33;;;6.63;;
735;SDS011;352;48.626;9.238;2023-05-01T02:27:37;7.67;;;6.97;;
735;SDS011;352;48.626;9.238;2023-05-01T02:30:07;7.90;;;7.20;;
735;SDS011;352;48.626;9.238;2023-05-01T02:32:34;8.17;;;7.10;;
735;SDS011;352;48.626;9.238;2023-05-01T02:35:01;11.00;;;6.47;;
735;SDS011;352;48.626;9.238;2023-05-01T02:37:28;7.00;;;6.30;;
735;SDS011;352;48.626;9.238;2023-05-01T02:39:56;7.50;;;6.80;;
735;SDS011;352;48.626;9.238;2023-05-01T02:42:25;7.07;;;6.53;;
735;SDS011;352;48.626;9.238;2023-05-01T02:44:54;6.57;;;6.03;;
735;SDS011;352;48.626;9.238;2023-05-01T02:47:23;9.37;;;6.87;;
735;SDS011;352;48.626;9.238;2023-05-01T02:49:52;7.67;;;7.00;;
735;SDS011;352;48.626;9.238;2023-05-01T02:52:19;7.17;;;6.57;;
735;SDS011;352;48.626;9.238;2023-05-01T02:54:47;8.10;;;6.83;;
735;SDS011;352;48.626;9.238;2023-05-01T02:57:15;9.27;;;7.40;;
735;SDS011;352;48.626;9.238;2023-05-01T02:59:44;8.10;;;7.13;;
735;SDS011;352;48.626;9.238;2023-05-01T03:02:10;7.43;;;6.83;;
735;SDS011;352;48.626;9.238;2023-05-01T03:04:37;6.90;;;6.30;;
735;SDS011;352;48.626;9.238;2023-05-01T03:07:04;8.10;;;7.30;;
735;SDS011;352;48.626;9.238;2023-05-01T03:09:31;7.20;;;6.60;;
735;SDS011;352;48.626;9.238;2023-05-01T03:11:58;7.73;;;7.03;;
735;SDS011;352;48.626;9.238;2023-05-01T03:14:25;7.07;;;6.47;;
735;SDS011;352;48.626;9.238;2023-05-01T03:16:53;7.53;;;6.93;;
735;SDS011;352;48.626;9.238;2023-05-01T03:19:21;7.20;;;6.60;;
735;SDS011;352;48.626;9.238;2023-05-01T03:21:47;7.30;;;6.60;;
735;SDS011;352;48.626;9.238;2023-05-01T03:24:14;7.03;;;6.43;;
735;SDS011;352;48.626;9.238;2023-05-01T03:26:41;6.80;;;6.10;;
735;SDS011;352;48.626;9.238;2023-05-01T03:29:07;7.30;;;6.73;;
735;SDS011;352;48.626;9.238;2023-05-01T03:31:37;7.83;;;6.73;;
735;SDS011;352;48.626;9.238;2023-05-01T03:34:05;8.20;;;6.50;;
735;SDS011;352;48.626;9.238;2023-05-01T03:36:31;7.87;;;6.97;;
735;SDS011;352;48.626;9.238;2023-05-01T03:38:58;7.73;;;7.03;;
735;SDS011;352;48.626;9.238;2023-05-01T03:41:25;7.80;;;7.00;;
735;SDS011;352;48.626;9.238;2023-05-01T03:43:52;7.23;;;6.53;;
735;SDS011;352;48.626;9.238;2023-05-01T03:46:19;7.97;;;7.17;;
735;SDS011;352;48.626;9.238;2023-05-01T03:48:45;8.03;;;7.23;;
735;SDS011;352;48.626;9.238;2023-05-01T03:51:13;7.60;;;7.00;;
735;SDS011;352;48.626;9.238;2023-05-01T03:53:41;7.70;;;7.10;;
735;SDS011;352;48.626;9.238;2023-05-01T03:56:08;8.00;;;7.30;;
735;SDS011;352;48.626;9.238;2023-05-01T03:58:34;8.00;;;7.30;;
735;SDS011;352;48.626;9.238;2023-05-01T04:01:01;8.23;;;7.53;;
735;SDS011;352;48.626;9.238;2023-05-01T04:03:28;7.47;;;6.77;;
735;SDS011;352;48.626;9.238;2023-05-01T04:05:54;7.70;;;7.10;;
735;SDS011;352;48.626;9.238;2023-05-01T04:08:23;8.07;;;7.33;;
735;SDS011;352;48.626;9.238;2023-05-01T04:10:50;12.33;;;11.10;;
735;SDS011;352;48.626;9.238;2023-05-01T04:13:18;8.07;;;7.37;;
735;SDS011;352;48.626;9.238;2023-05-01T04:15:45;7.37;;;6.80;;
735;SDS011;352;48.626;9.238;2023-05-01T04:18:12;7.00;;;6.40;;
735;SDS011;352;48.626;9.238;2023-05-01T04:20:39;10.17;;;7.10;;
735;SDS011;352;48.626;9.238;2023-05-01T04:23:06;7.40;;;6.80;;
735;SDS011;352;48.626;9.238;2023-05-01T04:25:34;7.60;;;6.90;;
735;SDS011;352;48.626;9.238;2023-05-01T04:28:01;8.83;;;7.93;;
735;SDS011;352;48.626;9.238;2023-05-01T04:30:28;8.40;;;7.70;;
735;SDS011;352;48.626;9.238;2023-05-01T04:32:55;7.77;;;7.10;;
735;SDS011;352;48.626;9.238;2023-05-01T04:35:22;8.43;;;7.67;;
735;SDS011;352;48.626;9.238;2023-05-01T04:37:49;8.63;;;7.90;;
735;SDS011;352;48.626;9.238;2023-05-01T04:40:16;9.10;;;7.60;;
735;SDS011;352;48.626;9.238;2023-05-01T04:42:45;8.93;;;8.13;;
735;SDS011;352;48.626;9.238;2023-05-01T04:45:12;8.70;;;7.90;;
735;SDS011;352;48.626;9.238;2023-05-01T04:47:39;8.30;;;7.53;;
735;SDS011;352;48.626;9.238;2023-05-01T04:50:06;8.03;;;7.13;;
735;SDS011;352;48.626;9.238;2023-05-01T04:52:33;8.20;;;7.50;;
735;SDS011;352;48.626;9.238;2023-05-01T04:55:00;7.70;;;6.93;;
735;SDS011;352;48.626;9.238;2023-05-01T04:57:27;7.63;;;6.93;;
735;SDS011;352;48.626;9.238;2023-05-01T04:59:56;7.97;;;7.30;;
735;SDS011;352;48.626;9.238;2023-05-01T05:02:23;8.70;;;7.90;;
735;SDS011;352;48.626;9.238;2023-05-01T05:52:29;10.07;;;9.20;;
735;SDS011;352;48.626;9.238;2023-05-01T05:55:19;11.07;;;10.07;;
735;SDS011;352;48.626;9.238;2023-05-01T05:58:01;9.83;;;8.90;;
735;SDS011;352;48.626;9.238;2023-05-01T06:00:38;8.87;;;8.07;;
735;SDS011;352;48.626;9.238;2023-05-01T06:03:08;9.00;;;8.20;;
735;SDS011;352;48.626;9.238;2023-05-01T06:05:58;10.77;;;9.77;;
735;SDS011;352;48.626;9.238;2023-05-01T06:08:46;11.60;;;10.53;;
735;SDS011;352;48.626;9.238;2023-05-01T06:11:14;10.60;;;9.60;;
735;SDS011;352;48.626;9.238;2023-05-01T06:14:01;11.83;;;10.70;;
735;SDS011;352;48.626;9.238;2023-05-01T06:35:32;20.27;;;18.50;;
735;SDS011;352;48.626;9.238;2023-05-01T06:40:38;10.37;;;9.33;;
735;SDS011;352;48.626;9.238;2023-05-01T06:43:25;17.30;;;9.90;;
735;SDS011;352;48.626;9.238;2023-05-01T06:45:57;11.03;;;10.03;;
735;SDS011;352;48.626;9.238;2023-05-01T06:48:41;10.87;;;9.87;;
735;SDS011;352;48.626;9.238;2023-05-01T06:58:33;10.90;;;9.80;;
735;SDS011;352;48.626;9.238;2023-05-01T07:32:50;11.33;;;10.33;;
735;SDS011;352;48.626;9.238;2023-05-01T08:07:08;11.53;;;10.47;;
735;SDS011;352;48.626;9.238;2023-05-01T08:09:35;11.57;;;10.40;;
735;SDS011;352;48.626;9.238;2023-05-01T08:12:02;11.43;;;10.43;;
735;SDS011;352;48.626;9.238;2023-05-01T08:14:29;11.47;;;10.43;;
735;SDS011;352;48.626;9.238;2023-05-01T08:16:57;11.30;;;10.30;;
735;SDS011;352;48.626;9.238;2023-05-01T08:26:54;11.80;;;10.40;;
735;SDS011;352;48.626;9.238;2023-05-01T08:29:31;12.53;;;11.33;;
735;SDS011;352;48.626;9.238;2023-05-01T08:35:32;10.63;;;9.73;;
735;SDS011;352;48.626;9.238;2023-05-01T08:38:04;11.70;;;10.60;;
735;SDS011;352;48.626;9.238;2023-05-01T08:40:40;11.90;;;10.83;;
735;SDS011;352;48.626;9.238;2023-05-01T08:43:14;11.63;;;10.63;;
735;SDS011;352;48.626;9.238;2023-05-01T08:45:42;11.77;;;10.67;;
735;SDS011;352;48.626;9.238;2023-05-01T08:48:12;11.33;;;10.23;;
735;SDS011;352;48.626;9.238;2023-05-01T08:50:45;9.60;;;8.57;;
735;SDS011;352;48.626;9.238;2023-05-01T08:53:14;10.57;;;9.70;;
735;SDS011;352;48.626;9.238;2023-05-01T08:55:43;8.93;;;8.17;;
735;SDS011;352;48.626;9.238;2023-05-01T08:58:12;9.67;;;8.77;;
735;SDS011;352;48.626;9.238;2023-05-01T09:00:42;9.57;;;8.60;;
735;SDS011;352;48.626;9.238;2023-05-01T09:03:12;10.83;;;10.03;;
735;SDS011;352;48.626;9.238;2023-05-01T09:05:39;9.83;;;9.00;;
735;SDS011;352;48.626;9.238;2023-05-01T09:34:39;8.00;;;7.20;;
735;SDS011;352;48.626;9.238;2023-05-01T09:35:54;8.73;;;7.93;;
735;SDS011;352;48.626;9.238;2023-05-01T09:38:55;7.83;;;7.13;;
735;SDS011;352;48.626;9.238;2023-05-01T09:45:21;8.40;;;7.70;;
735;SDS011;352;48.626;9.238;2023-05-01T10:33:14;5.80;;;5.40;;
735;SDS011;352;48.626;9.238;2023-05-01T10:35:43;4.67;;;4.27;;
735;SDS011;352;48.626;9.238;2023-05-01T10:38:18;6.53;;;5.10;;
735;SDS011;352;48.626;9.238;2023-05-01T10:40:48;5.50;;;5.03;;
735;SDS011;352;48.626;9.238;2023-05-01T10:43:17;5.77;;;5.30;;
735;SDS011;352;48.626;9.238;2023-05-01T10:45:50;5.47;;;4.97;;
735;SDS011;352;48.626;9.238;2023-05-01T10:51:20;5.27;;;4.87;;
735;SDS011;352;48.626;9.238;2023-05-01T10:56:52;5.60;;;5.20;;
735;SDS011;352;48.626;9.238;2023-05-01T10:59:22;5.30;;;4.87;;
735;SDS011;352;48.626;9.238;2023-05-01T11:01:50;6.53;;;5.77;;
735;SDS011;352;48.626;9.238;2023-05-01T11:07:18;5.23;;;4.83;;
735;SDS011;352;48.626;9.238;2023-05-01T11:09:47;5.33;;;5.03;;
735;SDS011;352;48.626;9.238;2023-05-01T11:15:25;5.33;;;4.93;;
735;SDS011;352;48.626;9.238;2023-05-01T11:17:54;4.87;;;4.47;;
735;SDS011;352;48.626;9.238;2023-05-01T11:23:18;5.80;;;5.40;;
735;SDS011;352;48.626;9.238;2023-05-01T11:25:46;5.30;;;4.90;;
735;SDS011;352;48.626;9.238;2023-05-01T11:28:17;5.63;;;5.17;;
735;SDS011;352;48.626;9.238;2023-05-01T11:30:46;6.43;;;5.90;;
735;SDS011;352;48.626;9.238;2023-05-01T11:33:13;5.97;;;5.53;;
735;SDS011;352;48.626;9.238;2023-05-01T11:36:00;6.43;;;5.83;;
735;SDS011;352;48.626;9.238;2023-05-01T11:38:28;6.63;;;6.03;;
735;SDS011;352;48.626;9.238;2023-05-01T11:40:59;5.87;;;5.47;;
735;SDS011;352;48.626;9.238;2023-05-01T11:43:28;23.80;;;20.90;;
735;SDS011;352;48.626;9.238;2023-05-01T11:45:55;16.73;;;14.93;;
735;SDS011;352;48.626;9.238;2023-05-01T11:48:27;13.70;;;12.30;;
735;SDS011;352;48.626;9.238;2023-05-01T11:50:55;7.40;;;6.80;;
735;SDS011;352;48.626;9.238;2023-05-01T11:53:23;6.83;;;6.23;;
735;SDS011;352;48.626;9.238;2023-05-01T11:55:50;6.10;;;5.60;;
735;SDS011;352;48.626;9.238;2023-05-01T11:58:16;6.73;;;6.23;;
735;SDS011;352;48.626;9.238;2023-05-01T12:00:54;6.10;;;5.60;;
735;SDS011;352;48.626;9.238;2023-05-01T12:03:22;6.17;;;5.73;;
735;SDS011;352;48.626;9.238;2023-05-01T12:05:49;5.73;;;5.33;;
735;SDS011;352;48.626;9.238;2023-05-01T12:08:17;5.60;;;5.20;;
735;SDS011;352;48.626;9.238;2023-05-01T12:10:47;6.10;;;5.70;;
735;SDS011;352;48.626;9.238;2023-05-01T12:13:15;6.30;;;5.70;;
735;SDS011;352;48.626;9.238;2023-05-01T12:15:43;5.40;;;4.90;;
735;SDS011;352;48.626;9.238;2023-05-01T12:18:11;6.30;;;5.80;;
735;SDS011;352;48.626;9.238;2023-05-01T12:20:40;6.07;;;5.67;;
735;SDS011;352;48.626;9.238;2023-05-01T12:23:08;6.53;;;6.03;;
735;SDS011;352;48.626;9.238;2023-05-01T12:25:36;6.07;;;5.57;;
735;SDS011;352;48.626;9.238;2023-05-01T12:28:08;5.60;;;5.20;;
735;SDS011;352;48.626;9.238;2023-05-01T12:30:36;5.10;;;4.70;;
735;SDS011;352;48.626;9.238;2023-05-01T12:33:07;5.80;;;5.40;;
735;SDS011;352;48.626;9.238;2023-05-01T12:35:35;6.17;;;5.23;;
735;SDS011;352;48.626;9.238;2023-05-01T12:38:08;5.87;;;5.20;;
735;SDS011;352;48.626;9.238;2023-05-01T12:40:36;4.57;;;4.27;;
735;SDS011;352;48.626;9.238;2023-05-01T12:43:04;5.20;;;4.80;;
735;SDS011;352;48.626;9.238;2023-05-01T12:45:37;5.40;;;5.00;;
735;SDS011;352;48.626;9.238;2023-05-01T12:48:08;5.50;;;5.13;;
735;SDS011;352;48.626;9.238;2023-05-01T12:50:38;5.80;;;5.40;;
735;SDS011;352;48.626;9.238;2023-05-01T12:53:05;6.10;;;5.33;;
735;SDS011;352;48.626;9.238;2023-05-01T12:55:40;5.93;;;5.43;;
735;SDS011;352;48.626;9.238;2023-05-01T12:58:09;10.30;;;9.40;;
735;SDS011;352;48.626;9.238;2023-05-01T13:00:45;10.30;;;9.40;;
735;SDS011;352;48.626;9.238;2023-05-01T13:03:13;10.17;;;9.23;;
735;SDS011;352;48.626;9.238;2023-05-01T13:05:48;10.83;;;9.93;;
735;SDS011;352;48.626;9.238;2023-05-01T13:08:26;11.40;;;10.30;;
735;SDS011;352;48.626;9.238;2023-05-01T13:10:55;10.30;;;9.40;;
735;SDS011;352;48.626;9.238;2023-05-01T13:13:23;10.50;;;9.60;;
735;SDS011;352;48.626;9.238;2023-05-01T13:15:53;10.20;;;9.20;;
735;SDS011;352;48.626;9.238;2023-05-01T13:18:28;9.80;;;9.00;;
735;SDS011;352;48.626;9.238;2023-05-01T13:21:00;10.70;;;9.90;;
735;SDS011;352;48.626;9.238;2023-05-01T13:23:31;10.23;;;9.40;;
735;SDS011;352;48.626;9.238;2023-05-01T13:25:58;10.50;;;9.60;;
735;SDS011;352;48.626;9.238;2023-05-01T13:28:25;11.63;;;10.63;;
735;SDS011;352;48.626;9.238;2023-05-01T13:30:53;12.30;;;11.20;;
735;SDS011;352;48.626;9.238;2023-05-01T13:33:20;9.80;;;8.90;;
735;SDS011;352;48.626;9.238;2023-05-01T13:35:46;10.50;;;9.57;;
735;SDS011;352;48.626;9.238;2023-05-01T13:38:13;10.53;;;9.50;;
735;SDS011;352;48.626;9.238;2023-05-01T13:40:47;11.13;;;10.13;;
735;SDS011;352;48.626;9.238;2023-05-01T13:43:14;13.53;;;12.30;;
735;SDS011;352;48.626;9.238;2023-05-01T13:45:41;12.20;;;10.90;;
735;SDS011;352;48.626;9.238;2023-05-01T13:48:09;16.47;;;14.07;;
735;SDS011;352;48.626;9.238;2023-05-01T13:50:37;15.93;;;14.23;;
735;SDS011;352;48.626;9.238;2023-05-01T13:53:06;15.70;;;13.93;;
735;SDS011;352;48.626;9.238;2023-05-01T13:55:33;16.97;;;15.20;;
735;SDS011;352;48.626;9.238;2023-05-01T13:57:59;17.50;;;15.63;;
735;SDS011;352;48.626;9.238;2023-05-01T14:00:27;17.70;;;16.00;;
735;SDS011;352;48.626;9.238;2023-05-01T14:02:53;18.40;;;16.70;;
735;SDS011;352;48.626;9.238;2023-05-01T14:05:25;19.20;;;17.40;;
735;SDS011;352;48.626;9.238;2023-05-01T14:07:53;17.30;;;15.70;;
735;SDS011;352;48.626;9.238;2023-05-01T14:10:22;15.50;;;14.00;;
735;SDS011;352;48.626;9.238;2023-05-01T14:12:52;17.03;;;15.33;;
735;SDS011;352;48.626;9.238;2023-05-01T14:15:20;16.53;;;14.73;;
735;SDS011;352;48.626;9.238;2023-05-01T14:17:48;17.00;;;15.20;;
735;SDS011;352;48.626;9.238;2023-05-01T14:20:15;17.80;;;16.03;;
735;SDS011;352;48.626;9.238;2023-05-01T14:22:43;14.10;;;12.80;;
735;SDS011;352;48.626;9.238;2023-05-01T14:25:20;12.37;;;11.17;;
735;SDS011;352;48.626;9.238;2023-05-01T14:27:48;11.20;;;10.10;;
735;SDS011;352;48.626;9.238;2023-05-01T14:30:18;12.93;;;11.07;;
735;SDS011;352;48.626;9.238;2023-05-01T14:32:51;13.10;;;11.90;;
735;SDS011;352;48.626;9.238;2023-05-01T14:35:19;15.03;;;13.63;;
735;SDS011;352;48.626;9.238;2023-05-01T14:37:48;14.07;;;12.67;;
735;SDS011;352;48.626;9.238;2023-05-01T14:40:15;13.73;;;12.43;;
735;SDS011;352;48.626;9.238;2023-05-01T14:42:43;17.17;;;15.60;;
735;SDS011;352;48.626;9.238;2023-05-01T14:45:10;21.37;;;16.73;;
735;SDS011;352;48.626;9.238;2023-05-01T14:47:42;20.33;;;17.60;;
735;SDS011;352;48.626;9.238;2023-05-01T14:50:10;18.93;;;17.00;;
735;SDS011;352;48.626;9.238;2023-05-01T14:52:39;20.00;;;17.90;;
735;SDS011;352;48.626;9.238;2023-05-01T14:55:08;20.93;;;18.73;;
735;SDS011;352;48.626;9.238;2023-05-01T14:57:36;22.57;;;20.17;;
735;SDS011;352;48.626;9.238;2023-05-01T15:00:04;19.70;;;17.60;;
735;SDS011;352;48.626;9.238;2023-05-01T15:02:32;20.03;;;18.10;;
735;SDS011;352;48.626;9.238;2023-05-01T15:04:58;17.20;;;15.50;;
735;SDS011;352;48.626;9.238;2023-05-01T15:07:25;19.07;;;17.17;;
735;SDS011;352;48.626;9.238;2023-05-01T15:09:52;19.47;;;17.37;;
735;SDS011;352;48.626;9.238;2023-05-01T15:12:20;18.47;;;16.60;;
735;SDS011;352;48.626;9.238;2023-05-01T15:14:47;16.33;;;14.70;;
735;SDS011;352;48.626;9.238;2023-05-01T15:17:13;17.53;;;13.77;;
735;SDS011;352;48.626;9.238;2023-05-01T15:19:40;14.23;;;12.93;;
735;SDS011;352;48.626;9.238;2023-05-01T15:22:07;14.90;;;13.40;;
735;SDS011;352;48.626;9.238;2023-05-01T15:24:33;13.33;;;12.03;;
735;SDS011;352;48.626;9.238;2023-05-01T15:27:00;15.43;;;12.13;;
735;SDS011;352;48.626;9.238;2023-05-01T15:29:29;14.60;;;13.10;;
735;SDS011;352;48.626;9.238;2023-05-01T15:31:56;15.03;;;12.10;;
735;SDS011;352;48.626;9.238;2023-05-01T15:34:23;14.97;;;13.57;;
735;SDS011;352;48.626;9.238;2023-05-01T15:36:50;14.60;;;12.90;;
735;SDS011;352;48.626;9.238;2023-05-01T15:39:17;14.77;;;13.27;;
735;SDS011;352;48.626;9.238;2023-05-01T15:41:44;13.43;;;12.07;;
735;SDS011;352;48.626;9.238;2023-05-01T15:44:11;15.07;;;12.20;;
735;SDS011;352;48.626;9.238;2023-05-01T15:46:39;14.30;;;12.90;;
735;SDS011;352;48.626;9.238;2023-05-01T15:49:06;16.43;;;14.70;;
735;SDS011;352;48.626;9.238;2023-05-01T15:51:34;14.17;;;12.73;;
735;SDS011;352;48.626;9.238;2023-05-01T15:54:01;12.27;;;11.07;;
735;SDS011;352;48.626;9.238;2023-05-01T15:56:29;13.90;;;12.07;;
735;SDS011;352;48.626;9.238;2023-05-01T15:59:00;14.93;;;11.83;;
735;SDS011;352;48.626;9.238;2023-05-01T16:01:29;14.87;;;13.33;;
735;SDS011;352;48.626;9.238;2023-05-01T16:03:57;13.43;;;12.13;;
735;SDS011;352;48.626;9.238;2023-05-01T16:06:25;13.10;;;11.27;;
735;SDS011;352;48.626;9.238;2023-05-01T16:08:52;12.97;;;11.77;;
735;SDS011;352;48.626;9.238;2023-05-01T16:11:18;14.63;;;13.30;;
735;SDS011;352;48.626;9.238;2023-05-01T16:13:45;13.23;;;12.03;;
735;SDS011;352;48.626;9.238;2023-05-01T16:16:13;41.33;;;38.00;;
735;SDS011;352;48.626;9.238;2023-05-01T16:18:46;65.60;;;59.60;;
735;SDS011;352;48.626;9.238;2023-05-01T16:21:20;42.30;;;37.90;;
735;SDS011;352;48.626;9.238;2023-05-01T16:23:47;24.53;;;18.97;;
735;SDS011;352;48.626;9.238;2023-05-01T16:26:17;14.37;;;13.00;;
735;SDS011;352;48.626;9.238;2023-05-01T16:28:46;14.27;;;12.60;;
735;SDS011;352;48.626;9.238;2023-05-01T16:31:13;11.80;;;10.60;;
735;SDS011;352;48.626;9.238;2023-05-01T16:33:42;10.97;;;10.07;;
735;SDS011;352;48.626;9.238;2023-05-01T16:36:09;11.27;;;10.37;;
735;SDS011;352;48.626;9.238;2023-05-01T16:38:41;9.47;;;8.67;;
735;SDS011;352;48.626;9.238;2023-05-01T16:41:08;9.73;;;8.83;;
735;SDS011;352;48.626;9.238;2023-05-01T16:43:40;9.63;;;8.83;;
735;SDS011;352;48.626;9.238;2023-05-01T16:46:07;9.70;;;8.90;;
735;SDS011;352;48.626;9.238;2023-05-01T16:48:35;11.13;;;10.07;;
735;SDS011;352;48.626;9.238;2023-05-01T16:51:02;9.60;;;8.63;;
735;SDS011;352;48.626;9.238;2023-05-01T16:53:30;8.90;;;8.00;;
735;SDS011;352;48.626;9.238;2023-05-01T16:55:58;7.77;;;6.97;;
735;SDS011;352;48.626;9.238;2023-05-01T16:58:25;7.33;;;6.73;;
735;SDS011;352;48.626;9.238;2023-05-01T17:00:52;7.40;;;6.70;;
735;SDS011;352;48.626;9.238;2023-05-01T17:03:19;7.97;;;7.33;;
735;SDS011;352;48.626;9.238;2023-05-01T17:05:46;9.10;;;8.30;;
735;SDS011;352;48.626;9.238;2023-05-01T17:08:13;7.63;;;6.93;;
735;SDS011;352;48.626;9.238;2023-05-01T17:10:39;7.90;;;7.30;;
735;SDS011;352;48.626;9.238;2023-05-01T17:13:10;6.73;;;6.00;;
735;SDS011;352;48.626;9.238;2023-05-01T17:15:38;7.73;;;7.03;;
735;SDS011;352;48.626;9.238;2023-05-01T17:18:05;6.60;;;6.00;;
735;SDS011;352;48.626;9.238;2023-05-01T17:20:32;7.17;;;6.47;;
735;SDS011;352;48.626;9.238;2023-05-01T17:22:59;7.10;;;6.50;;
735;SDS011;352;48.626;9.238;2023-05-01T17:25:26;6.50;;;5.90;;
735;SDS011;352;48.626;9.238;2023-05-01T17:27:53;7.30;;;6.30;;
735;SDS011;352;48.626;9.238;2023-05-01T17:30:21;6.93;;;6.27;;
735;SDS011;352;48.626;9.238;2023-05-01T17:32:48;7.20;;;6.60;;
735;SDS011;352;48.626;9.238;2023-05-01T17:35:15;7.37;;;6.50;;
735;SDS011;352;48.626;9.238;2023-05-01T17:37:42;16.83;;;6.60;;
735;SDS011;352;48.626;9.238;2023-05-01T17:40:10;6.30;;;5.70;;
735;SDS011;352;48.626;9.238;2023-05-01T17:42:37;7.23;;;6.63;;
735;SDS011;352;48.626;9.238;2023-05-01T17:45:04;9.57;;;8.30;;
735;SDS011;352;48.626;9.238;2023-05-01T17:47:35;9.03;;;8.23;;
735;SDS011;352;48.626;9.238;2023-05-01T17:50:08;9.60;;;7.10;;
735;SDS011;352;48.626;9.238;2023-05-01T17:52:36;9.27;;;8.47;;
735;SDS011;352;48.626;9.238;2023-05-01T17:55:03;10.57;;;9.57;;
735;SDS011;352;48.626;9.238;2023-05-01T17:57:34;12.00;;;10.80;;
735;SDS011;352;48.626;9.238;2023-05-01T18:00:01;10.40;;;9.30;;
735;SDS011;352;48.626;9.238;2023-05-01T18:02:28;9.80;;;8.80;;
735;SDS011;352;48.626;9.238;2023-05-01T18:05:02;8.67;;;7.97;;
735;SDS011;352;48.626;9.238;2023-05-01T18:07:30;9.00;;;7.90;;
735;SDS011;352;48.626;9.238;2023-05-01T18:09:57;11.07;;;9.73;;
735;SDS011;352;48.626;9.238;2023-05-01T18:12:24;10.73;;;9.63;;
735;SDS011;352;48.626;9.238;2023-05-01T18:14:51;7.90;;;7.17;;
735;SDS011;352;48.626;9.238;2023-05-01T18:17:20;7.73;;;7.00;;
735;SDS011;352;48.626;9.238;2023-05-01T18:19:47;8.00;;;7.30;;
735;SDS011;352;48.626;9.238;2023-05-01T18:22:16;9.57;;;7.63;;
735;SDS011;352;48.626;9.238;2023-05-01T18:24:43;7.37;;;6.67;;
735;SDS011;352;48.626;9.238;2023-05-01T18:27:10;8.13;;;7.33;;
735;SDS011;352;48.626;9.238;2023-05-01T18:29:37;8.13;;;7.33;;
735;SDS011;352;48.626;9.238;2023-05-01T18:32:05;8.37;;;7.57;;
735;SDS011;352;48.626;9.238;2023-05-01T18:34:33;7.20;;;6.60;;
735;SDS011;352;48.626;9.238;2023-05-01T18:37:01;7.87;;;7.20;;
735;SDS011;352;48.626;9.238;2023-05-01T18:39:30;8.90;;;8.10;;
735;SDS011;352;48.626;9.238;2023-05-01T18:41:57;17.57;;;14.17;;
735;SDS011;352;48.626;9.238;2023-05-01T18:44:24;11.77;;;10.57;;
735;SDS011;352;48.626;9.238;2023-05-01T18:46:51;11.90;;;10.70;;
735;SDS011;352;48.626;9.238;2023-05-01T18:49:18;11.50;;;9.03;;
735;SDS011;352;48.626;9.238;2023-05-01T18:51:48;7.67;;;7.07;;
735;SDS011;352;48.626;9.238;2023-05-01T18:54:15;7.23;;;6.63;;
735;SDS011;352;48.626;9.238;2023-05-01T18:57:16;8.23;;;7.53;;
735;SDS011;352;48.626;9.238;2023-05-01T18:59:43;7.10;;;6.40;;
735;SDS011;352;48.626;9.238;2023-05-01T19:02:10;6.83;;;6.23;;
735;SDS011;352;48.626;9.238;2023-05-01T19:04:38;7.80;;;6.77;;
735;SDS011;352;48.626;9.238;2023-05-01T19:07:06;7.87;;;7.07;;
